sensor_id;sensor_type;location;lat;lon;timestamp;temperature;humidity
7341;DHT22;6870;50.944;6.932;2023-06-24T00:00:06;27.70;26.50
7341;DHT22;6870;50.944;6.932;2023-06-24T00:02:36;27.80;26.50
7341;DHT22;6870;50.944;6.932;2023-06-24T00:05:05;27.30;26.30
7341;DHT22;6870;50.944;6.932;2023-06-24T00:07:35;27.80;26.50
7341;DHT22;6870;50.944;6.932;2023-06-24T00:10:13;27.50;26.40
7341;DHT22;6870;50.944;6.932;2023-06-24T00:12:45;27.40;26.30
7341;DHT22;6870;50.944;6.932;2023-06-24T00:15:13;27.80;26.50
7341;DHT22;6870;50.944;6.932;2023-06-24T00:17:41;27.80;26.50
7341;DHT22;6870;50.944;6.932;2023-06-24T00:20:10;27.40;26.30
7341;DHT22;6870;50.944;6.932;2023-06-24T00:22:41;27.80;26.50
7341;DHT22;6870;50.944;6.932;2023-06-24T00:25:12;27.60;26.40
7341;DHT22;6870;50.944;6.932;2023-06-24T00:27:41;27.40;26.30
7341;DHT22;6870;50.944;6.932;2023-06-24T00:30:10;27.80;26.50
7341;DHT22;6870;50.944;6.932;2023-06-24T00:32:39;27.80;26.50
7341;DHT22;6870;50.944;6.932;2023-06-24T00:35:09;27.60;26.40
7341;DHT22;6870;50.944;6.932;2023-06-24T00:37:38;27.60;26.40
7341;DHT22;6870;50.944;6.932;2023-06-24T00:40:08;27.90;26.60
7341;DHT22;6870;50.944;6.932;2023-06-24T00:42:44;27.80;26.50
7341;DHT22;6870;50.944;6.932;2023-06-24T00:45:13;27.30;26.30
7341;DHT22;6870;50.944;6.932;2023-06-24T00:47:43;27.40;26.30
7341;DHT22;6870;50.944;6.932;2023-06-24T00:50:12;27.70;26.50
7341;DHT22;6870;50.944;6.932;2023-06-24T00:52:40;27.80;26.50
7341;DHT22;6870;50.944;6.932;2023-06-24T00:55:10;27.40;26.70
7341;DHT22;6870;50.944;6.932;2023-06-24T00:57:40;27.40;26.70
7341;DHT22;6870;50.944;6.932;2023-06-24T01:00:10;27.70;27.00
7341;DHT22;6870;50.944;6.932;2023-06-24T01:02:41;27.90;27.30
7341;DHT22;6870;50.944;6.932;2023-06-24T01:05:10;27.90;27.10
7341;DHT22;6870;50.944;6.932;2023-06-24T01:07:39;27.70;26.70
7341;DHT22;6870;50.944;6.932;2023-06-24T01:10:09;27.90;26.70
7341;DHT22;6870;50.944;6.932;2023-06-24T01:12:39;27.50;26.50
7341;DHT22;6870;50.944;6.932;2023-06-24T01:15:12;27.90;26.90
7341;DHT22;6870;50.944;6.932;2023-06-24T01:17:47;27.50;26.90
7341;DHT22;6870;50.944;6.932;2023-06-24T01:20:21;27.70;26.90
7341;DHT22;6870;50.944;6.932;2023-06-24T01:23:17;28.00;26.60
7341;DHT22;6870;50.944;6.932;2023-06-24T01:26:04;28.00;26.60
7341;DHT22;6870;50.944;6.932;2023-06-24T01:28:58;27.90;26.60
7341;DHT22;6870;50.944;6.932;2023-06-24T01:31:39;28.00;26.60
7341;DHT22;6870;50.944;6.932;2023-06-24T01:34:15;28.10;26.70
7341;DHT22;6870;50.944;6.932;2023-06-24T01:36:53;27.50;26.40
7341;DHT22;6870;50.944;6.932;2023-06-24T01:39:25;27.80;26.60
7341;DHT22;6870;50.944;6.932;2023-06-24T01:41:59;28.00;27.30
7341;DHT22;6870;50.944;6.932;2023-06-24T01:44:30;27.40;27.40
7341;DHT22;6870;50.944;6.932;2023-06-24T01:47:01;27.50;27.40
7341;DHT22;6870;50.944;6.932;2023-06-24T01:49:33;27.40;27.30
7341;DHT22;6870;50.944;6.932;2023-06-24T01:52:07;27.10;27.00
7341;DHT22;6870;50.944;6.932;2023-06-24T01:54:36;27.60;27.30
7341;DHT22;6870;50.944;6.932;2023-06-24T01:57:08;27.30;27.10
7341;DHT22;6870;50.944;6.932;2023-06-24T01:59:40;27.30;27.00
7341;DHT22;6870;50.944;6.932;2023-06-24T02:02:11;27.20;27.00
7341;DHT22;6870;50.944;6.932;2023-06-24T02:04:40;27.30;27.00
7341;DHT22;6870;50.944;6.932;2023-06-24T02:07:08;27.20;26.90
7341;DHT22;6870;50.944;6.932;2023-06-24T02:09:38;27.10;26.90
7341;DHT22;6870;50.944;6.932;2023-06-24T02:12:08;27.00;26.80
7341;DHT22;6870;50.944;6.932;2023-06-24T02:14:37;27.20;27.00
7341;DHT22;6870;50.944;6.932;2023-06-24T02:17:08;27.20;27.00
7341;DHT22;6870;50.944;6.932;2023-06-24T02:19:39;27.00;26.90
7341;DHT22;6870;50.944;6.932;2023-06-24T02:22:08;27.10;27.00
7341;DHT22;6870;50.944;6.932;2023-06-24T02:24:37;26.80;26.90
7341;DHT22;6870;50.944;6.932;2023-06-24T02:27:06;27.40;27.20
7341;DHT22;6870;50.944;6.932;2023-06-24T02:29:36;27.10;27.00
7341;DHT22;6870;50.944;6.932;2023-06-24T02:32:05;26.90;26.90
7341;DHT22;6870;50.944;6.932;2023-06-24T02:34:36;27.20;27.10
7341;DHT22;6870;50.944;6.932;2023-06-24T02:37:04;27.30;27.20
7341;DHT22;6870;50.944;6.932;2023-06-24T02:39:32;27.20;27.20
7341;DHT22;6870;50.944;6.932;2023-06-24T02:42:01;26.70;26.90
7341;DHT22;6870;50.944;6.932;2023-06-24T02:44:29;26.70;26.90
7341;DHT22;6870;50.944;6.932;2023-06-24T02:46:57;27.20;27.20
7341;DHT22;6870;50.944;6.932;2023-06-24T02:49:27;26.90;27.10
7341;DHT22;6870;50.944;6.932;2023-06-24T02:51:57;26.70;26.90
7341;DHT22;6870;50.944;6.932;2023-06-24T02:54:25;27.10;27.20
7341;DHT22;6870;50.944;6.932;2023-06-24T02:56:54;27.10;27.20
7341;DHT22;6870;50.944;6.932;2023-06-24T02:59:26;26.60;27.00
7341;DHT22;6870;50.944;6.932;2023-06-24T03:01:54;26.80;27.10
7341;DHT22;6870;50.944;6.932;2023-06-24T03:04:22;26.60;27.00
7341;DHT22;6870;50.944;6.932;2023-06-24T03:06:50;27.20;27.40
7341;DHT22;6870;50.944;6.932;2023-06-24T03:09:20;26.80;27.10
7341;DHT22;6870;50.944;6.932;2023-06-24T03:11:49;26.60;27.10
7341;DHT22;6870;50.944;6.932;2023-06-24T03:14:17;27.10;27.40
7341;DHT22;6870;50.944;6.932;2023-06-24T03:16:45;26.90;27.30
7341;DHT22;6870;50.944;6.932;2023-06-24T03:19:13;26.80;27.20
7341;DHT22;6870;50.944;6.932;2023-06-24T03:21:41;27.00;27.30
7341;DHT22;6870;50.944;6.932;2023-06-24T03:24:09;26.60;27.10
7341;DHT22;6870;50.944;6.932;2023-06-24T03:26:39;26.60;27.10
7341;DHT22;6870;50.944;6.932;2023-06-24T03:29:07;27.10;27.50
7341;DHT22;6870;50.944;6.932;2023-06-24T03:31:35;26.80;27.30
7341;DHT22;6870;50.944;6.932;2023-06-24T03:34:03;26.50;27.20
7341;DHT22;6870;50.944;6.932;2023-06-24T03:36:31;27.00;27.40
7341;DHT22;6870;50.944;6.932;2023-06-24T03:39:01;26.70;27.30
7341;DHT22;6870;50.944;6.932;2023-06-24T03:41:29;26.60;27.30
7341;DHT22;6870;50.944;6.932;2023-06-24T03:43:59;27.00;27.50
7341;DHT22;6870;50.944;6.932;2023-06-24T03:46:27;26.70;27.40
7341;DHT22;6870;50.944;6.932;2023-06-24T03:48:59;26.80;27.40
7341;DHT22;6870;50.944;6.932;2023-06-24T03:51:27;26.40;27.10
7341;DHT22;6870;50.944;6.932;2023-06-24T03:53:55;26.60;27.30
7341;DHT22;6870;50.944;6.932;2023-06-24T03:56:23;26.80;27.40
7341;DHT22;6870;50.944;6.932;2023-06-24T03:58:51;26.60;27.30
7341;DHT22;6870;50.944;6.932;2023-06-24T04:01:21;26.50;27.20
7341;DHT22;6870;50.944;6.932;2023-06-24T04:03:49;26.80;27.40
7341;DHT22;6870;50.944;6.932;2023-06-24T04:06:17;26.60;27.30
7341;DHT22;6870;50.944;6.932;2023-06-24T04:08:45;26.90;27.50
7341;DHT22;6870;50.944;6.932;2023-06-24T04:11:15;26.60;27.30
7341;DHT22;6870;50.944;6.932;2023-06-24T04:13:43;26.50;27.20
7341;DHT22;6870;50.944;6.932;2023-06-24T04:16:11;26.90;27.50
7341;DHT22;6870;50.944;6.932;2023-06-24T04:18:40;26.80;27.40
7341;DHT22;6870;50.944;6.932;2023-06-24T04:21:09;26.70;27.30
7341;DHT22;6870;50.944;6.932;2023-06-24T04:23:37;26.50;27.20
7341;DHT22;6870;50.944;6.932;2023-06-24T04:26:05;26.80;27.40
7341;DHT22;6870;50.944;6.932;2023-06-24T04:28:33;26.50;27.20
7341;DHT22;6870;50.944;6.932;2023-06-24T04:31:01;26.90;27.50
7341;DHT22;6870;50.944;6.932;2023-06-24T04:33:31;26.80;27.40
7341;DHT22;6870;50.944;6.932;2023-06-24T04:36:00;26.60;27.30
7341;DHT22;6870;50.944;6.932;2023-06-24T04:38:28;26.50;27.20
7341;DHT22;6870;50.944;6.932;2023-06-24T04:40:56;26.70;27.30
7341;DHT22;6870;50.944;6.932;2023-06-24T04:43:25;26.80;27.30
7341;DHT22;6870;50.944;6.932;2023-06-24T04:45:54;26.50;27.30
7341;DHT22;6870;50.944;6.932;2023-06-24T04:48:24;27.00;27.60
7341;DHT22;6870;50.944;6.932;2023-06-24T04:50:52;26.90;27.50
7341;DHT22;6870;50.944;6.932;2023-06-24T04:53:22;26.80;27.50
7341;DHT22;6870;50.944;6.932;2023-06-24T04:55:50;26.50;27.20
7341;DHT22;6870;50.944;6.932;2023-06-24T04:58:18;27.00;27.60
7341;DHT22;6870;50.944;6.932;2023-06-24T05:00:46;26.70;27.40
7341;DHT22;6870;50.944;6.932;2023-06-24T05:03:14;26.70;27.40
7341;DHT22;6870;50.944;6.932;2023-06-24T05:05:42;26.70;27.40
7341;DHT22;6870;50.944;6.932;2023-06-24T05:08:10;27.00;27.70
7341;DHT22;6870;50.944;6.932;2023-06-24T05:10:40;26.70;27.60
7341;DHT22;6870;50.944;6.932;2023-06-24T05:13:08;26.60;27.60
7341;DHT22;6870;50.944;6.932;2023-06-24T05:15:36;27.00;27.80
7341;DHT22;6870;50.944;6.932;2023-06-24T05:18:04;26.50;27.50
7341;DHT22;6870;50.944;6.932;2023-06-24T05:20:32;26.40;27.40
7341;DHT22;6870;50.944;6.932;2023-06-24T05:23:00;26.80;27.60
7341;DHT22;6870;50.944;6.932;2023-06-24T05:25:28;26.70;27.50
7341;DHT22;6870;50.944;6.932;2023-06-24T05:27:57;26.80;27.40
7341;DHT22;6870;50.944;6.932;2023-06-24T05:30:26;26.80;27.40
7341;DHT22;6870;50.944;6.932;2023-06-24T05:32:53;26.90;27.40
7341;DHT22;6870;50.944;6.932;2023-06-24T05:35:22;26.80;27.30
7341;DHT22;6870;50.944;6.932;2023-06-24T05:37:49;26.60;27.20
7341;DHT22;6870;50.944;6.932;2023-06-24T05:40:17;26.60;27.20
7341;DHT22;6870;50.944;6.932;2023-06-24T05:42:45;26.80;27.30
7341;DHT22;6870;50.944;6.932;2023-06-24T05:45:15;26.50;27.10
7341;DHT22;6870;50.944;6.932;2023-06-24T05:47:43;27.10;27.50
7341;DHT22;6870;50.944;6.932;2023-06-24T05:50:13;26.90;27.40
7341;DHT22;6870;50.944;6.932;2023-06-24T05:52:41;26.80;28.00
7341;DHT22;6870;50.944;6.932;2023-06-24T05:55:09;26.80;27.40
7341;DHT22;6870;50.944;6.932;2023-06-24T05:57:40;26.60;27.30
7341;DHT22;6870;50.944;6.932;2023-06-24T06:00:09;26.90;27.50
7341;DHT22;6870;50.944;6.932;2023-06-24T06:02:39;26.80;27.30
7341;DHT22;6870;50.944;6.932;2023-06-24T06:05:08;27.00;27.50
7341;DHT22;6870;50.944;6.932;2023-06-24T06:07:36;27.10;27.50
7341;DHT22;6870;50.944;6.932;2023-06-24T06:10:07;26.80;27.30
7341;DHT22;6870;50.944;6.932;2023-06-24T06:12:35;26.90;27.30
7341;DHT22;6870;50.944;6.932;2023-06-24T06:15:04;26.60;27.10
7341;DHT22;6870;50.944;6.932;2023-06-24T06:17:32;27.00;27.30
7341;DHT22;6870;50.944;6.932;2023-06-24T06:20:02;26.70;27.10
7341;DHT22;6870;50.944;6.932;2023-06-24T06:22:31;27.00;27.20
7341;DHT22;6870;50.944;6.932;2023-06-24T06:25:05;27.00;27.20
7341;DHT22;6870;50.944;6.932;2023-06-24T06:27:33;27.10;27.10
7341;DHT22;6870;50.944;6.932;2023-06-24T06:30:02;27.20;27.10
7341;DHT22;6870;50.944;6.932;2023-06-24T06:32:31;26.90;26.90
7341;DHT22;6870;50.944;6.932;2023-06-24T06:34:59;27.00;27.10
7341;DHT22;6870;50.944;6.932;2023-06-24T06:37:28;27.10;27.00
7341;DHT22;6870;50.944;6.932;2023-06-24T06:39:56;26.70;26.80
7341;DHT22;6870;50.944;6.932;2023-06-24T06:42:24;27.10;27.00
7341;DHT22;6870;50.944;6.932;2023-06-24T06:44:53;26.80;26.70
7341;DHT22;6870;50.944;6.932;2023-06-24T06:47:22;27.10;26.80
7341;DHT22;6870;50.944;6.932;2023-06-24T06:49:50;26.90;26.80
7341;DHT22;6870;50.944;6.932;2023-06-24T06:52:18;27.20;26.80
7341;DHT22;6870;50.944;6.932;2023-06-24T06:54:48;26.90;26.70
7341;DHT22;6870;50.944;6.932;2023-06-24T06:57:16;27.20;26.80
7341;DHT22;6870;50.944;6.932;2023-06-24T06:59:44;27.10;26.80
7341;DHT22;6870;50.944;6.932;2023-06-24T07:02:12;27.20;26.80
7341;DHT22;6870;50.944;6.932;2023-06-24T07:04:40;27.30;26.90
7341;DHT22;6870;50.944;6.932;2023-06-24T07:07:08;27.20;26.90
7341;DHT22;6870;50.944;6.932;2023-06-24T07:09:36;27.60;27.30
7341;DHT22;6870;50.944;6.932;2023-06-24T07:12:06;27.50;27.30
7341;DHT22;6870;50.944;6.932;2023-06-24T07:14:35;27.30;27.20
7341;DHT22;6870;50.944;6.932;2023-06-24T07:17:03;27.20;27.20
7341;DHT22;6870;50.944;6.932;2023-06-24T07:19:32;27.30;27.30
7341;DHT22;6870;50.944;6.932;2023-06-24T07:22:00;27.20;27.30
7341;DHT22;6870;50.944;6.932;2023-06-24T07:24:28;27.30;27.40
7341;DHT22;6870;50.944;6.932;2023-06-24T07:26:56;27.10;27.30
7341;DHT22;6870;50.944;6.932;2023-06-24T07:29:25;27.40;27.30
7341;DHT22;6870;50.944;6.932;2023-06-24T07:31:53;27.20;27.20
7341;DHT22;6870;50.944;6.932;2023-06-24T07:34:21;27.40;27.30
7341;DHT22;6870;50.944;6.932;2023-06-24T07:36:49;27.10;27.20
7341;DHT22;6870;50.944;6.932;2023-06-24T07:39:18;27.10;25.00
7341;DHT22;6870;50.944;6.932;2023-06-24T07:41:46;27.20;26.20
7341;DHT22;6870;50.944;6.932;2023-06-24T07:44:26;27.20;26.20
7341;DHT22;6870;50.944;6.932;2023-06-24T07:46:54;27.30;26.30
7341;DHT22;6870;50.944;6.932;2023-06-24T07:49:22;27.30;26.30
7341;DHT22;6870;50.944;6.932;2023-06-24T07:51:50;27.40;26.30
7341;DHT22;6870;50.944;6.932;2023-06-24T07:54:18;27.70;26.50
7341;DHT22;6870;50.944;6.932;2023-06-24T07:56:46;27.60;26.40
7341;DHT22;6870;50.944;6.932;2023-06-24T07:59:14;27.70;26.70
7341;DHT22;6870;50.944;6.932;2023-06-24T08:01:43;27.30;26.30
7341;DHT22;6870;50.944;6.932;2023-06-24T08:04:11;27.50;26.40
7341;DHT22;6870;50.944;6.932;2023-06-24T08:06:40;27.40;26.40
7341;DHT22;6870;50.944;6.932;2023-06-24T08:09:08;27.60;26.40
7341;DHT22;6870;50.944;6.932;2023-06-24T08:11:36;27.40;26.70
7341;DHT22;6870;50.944;6.932;2023-06-24T08:14:04;27.40;26.50
7341;DHT22;6870;50.944;6.932;2023-06-24T08:16:32;27.50;26.70
7341;DHT22;6870;50.944;6.932;2023-06-24T08:19:02;27.20;26.30
7341;DHT22;6870;50.944;6.932;2023-06-24T08:21:30;27.20;26.20
7341;DHT22;6870;50.944;6.932;2023-06-24T08:23:58;27.70;26.50
7341;DHT22;6870;50.944;6.932;2023-06-24T08:26:26;27.50;26.40
7341;DHT22;6870;50.944;6.932;2023-06-24T08:28:54;27.10;26.10
7341;DHT22;6870;50.944;6.932;2023-06-24T08:31:22;27.20;26.20
7341;DHT22;6870;50.944;6.932;2023-06-24T08:33:52;27.20;26.20
7341;DHT22;6870;50.944;6.932;2023-06-24T08:36:22;27.10;26.10
7341;DHT22;6870;50.944;6.932;2023-06-24T08:38:51;27.40;26.30
7341;DHT22;6870;50.944;6.932;2023-06-24T08:41:19;27.40;26.30
7341;DHT22;6870;50.944;6.932;2023-06-24T08:43:47;27.30;26.30
7341;DHT22;6870;50.944;6.932;2023-06-24T08:46:16;27.40;26.30
7341;DHT22;6870;50.944;6.932;2023-06-24T08:48:48;27.50;26.40
7341;DHT22;6870;50.944;6.932;2023-06-24T08:51:18;27.60;26.40
7341;DHT22;6870;50.944;6.932;2023-06-24T08:53:51;27.70;26.50
7341;DHT22;6870;50.944;6.932;2023-06-24T08:56:19;27.80;26.70
7341;DHT22;6870;50.944;6.932;2023-06-24T08:58:47;27.30;26.30
7341;DHT22;6870;50.944;6.932;2023-06-24T09:01:15;27.20;26.20
7341;DHT22;6870;50.944;6.932;2023-06-24T09:03:43;27.20;26.20
7341;DHT22;6870;50.944;6.932;2023-06-24T09:06:11;27.40;26.30
7341;DHT22;6870;50.944;6.932;2023-06-24T09:08:39;27.40;26.30
7341;DHT22;6870;50.944;6.932;2023-06-24T09:11:09;27.60;26.40
7341;DHT22;6870;50.944;6.932;2023-06-24T09:13:37;27.30;26.30
7341;DHT22;6870;50.944;6.932;2023-06-24T09:16:13;27.30;26.30
7341;DHT22;6870;50.944;6.932;2023-06-24T09:18:47;27.40;26.30
7341;DHT22;6870;50.944;6.932;2023-06-24T09:21:21;27.70;26.50
7341;DHT22;6870;50.944;6.932;2023-06-24T09:23:53;27.70;26.50
7341;DHT22;6870;50.944;6.932;2023-06-24T09:26:24;27.70;26.50
7341;DHT22;6870;50.944;6.932;2023-06-24T09:28:53;27.30;26.30
7341;DHT22;6870;50.944;6.932;2023-06-24T09:31:23;27.30;26.30
7341;DHT22;6870;50.944;6.932;2023-06-24T09:33:51;27.50;26.40
7341;DHT22;6870;50.944;6.932;2023-06-24T09:36:19;27.50;26.40
7341;DHT22;6870;50.944;6.932;2023-06-24T09:38:47;27.80;26.50
7341;DHT22;6870;50.944;6.932;2023-06-24T09:41:16;27.60;26.40
7341;DHT22;6870;50.944;6.932;2023-06-24T09:43:46;27.40;26.30
7341;DHT22;6870;50.944;6.932;2023-06-24T09:46:14;27.30;26.30
7341;DHT22;6870;50.944;6.932;2023-06-24T09:48:44;27.40;26.30
7341;DHT22;6870;50.944;6.932;2023-06-24T09:51:12;27.40;26.30
7341;DHT22;6870;50.944;6.932;2023-06-24T09:53:42;27.20;26.20
7341;DHT22;6870;50.944;6.932;2023-06-24T09:56:13;27.60;26.40
7341;DHT22;6870;50.944;6.932;2023-06-24T09:58:43;27.20;26.80
7341;DHT22;6870;50.944;6.932;2023-06-24T10:01:13;27.60;26.40
7341;DHT22;6870;50.944;6.932;2023-06-24T10:03:43;27.20;26.20
7341;DHT22;6870;50.944;6.932;2023-06-24T10:06:11;27.60;26.40
7341;DHT22;6870;50.944;6.932;2023-06-24T10:08:40;27.40;26.30
7341;DHT22;6870;50.944;6.932;2023-06-24T10:11:08;27.60;26.40
7341;DHT22;6870;50.944;6.932;2023-06-24T10:13:36;27.80;26.50
7341;DHT22;6870;50.944;6.932;2023-06-24T10:16:06;27.50;26.40
7341;DHT22;6870;50.944;6.932;2023-06-24T10:18:35;27.60;26.40
7341;DHT22;6870;50.944;6.932;2023-06-24T10:21:05;27.30;26.30
7341;DHT22;6870;50.944;6.932;2023-06-24T10:23:39;27.60;26.40
7341;DHT22;6870;50.944;6.932;2023-06-24T10:26:09;27.50;26.40
7341;DHT22;6870;50.944;6.932;2023-06-24T10:29:08;27.70;26.50
7341;DHT22;6870;50.944;6.932;2023-06-24T10:32:06;27.50;26.40
7341;DHT22;6870;50.944;6.932;2023-06-24T10:34:39;27.80;26.50
7341;DHT22;6870;50.944;6.932;2023-06-24T10:37:13;27.50;26.40
7341;DHT22;6870;50.944;6.932;2023-06-24T10:39:47;27.60;26.40
7341;DHT22;6870;50.944;6.932;2023-06-24T10:42:39;27.50;26.40
7341;DHT22;6870;50.944;6.932;2023-06-24T10:45:17;27.60;26.40
7341;DHT22;6870;50.944;6.932;2023-06-24T10:47:49;27.70;26.50
7341;DHT22;6870;50.944;6.932;2023-06-24T10:50:20;27.70;26.50
7341;DHT22;6870;50.944;6.932;2023-06-24T10:52:50;27.50;26.40
7341;DHT22;6870;50.944;6.932;2023-06-24T10:55:22;27.40;26.30
7341;DHT22;6870;50.944;6.932;2023-06-24T10:57:51;27.80;26.50
7341;DHT22;6870;50.944;6.932;2023-06-24T11:00:20;27.70;26.50
7341;DHT22;6870;50.944;6.932;2023-06-24T11:02:50;27.40;26.30
7341;DHT22;6870;50.944;6.932;2023-06-24T11:05:18;27.50;26.40
7341;DHT22;6870;50.944;6.932;2023-06-24T11:07:46;27.40;26.20
7341;DHT22;6870;50.944;6.932;2023-06-24T11:10:14;27.30;26.00
7341;DHT22;6870;50.944;6.932;2023-06-24T11:12:43;27.60;26.80
7341;DHT22;6870;50.944;6.932;2023-06-24T11:15:13;27.80;26.00
7341;DHT22;6870;50.944;6.932;2023-06-24T11:17:41;27.30;25.60
7341;DHT22;6870;50.944;6.932;2023-06-24T11:20:12;27.70;25.80
7341;DHT22;6870;50.944;6.932;2023-06-24T11:22:41;27.60;25.60
7341;DHT22;6870;50.944;6.932;2023-06-24T11:25:17;28.00;26.40
7341;DHT22;6870;50.944;6.932;2023-06-24T11:27:46;27.40;25.40
7341;DHT22;6870;50.944;6.932;2023-06-24T11:30:15;27.80;25.50
7341;DHT22;6870;50.944;6.932;2023-06-24T11:32:44;27.70;25.30
7341;DHT22;6870;50.944;6.932;2023-06-24T11:35:15;27.30;25.10
7341;DHT22;6870;50.944;6.932;2023-06-24T11:37:45;27.60;25.10
7341;DHT22;6870;50.944;6.932;2023-06-24T11:40:17;27.70;25.00
7341;DHT22;6870;50.944;6.932;2023-06-24T11:42:48;27.80;24.80
7341;DHT22;6870;50.944;6.932;2023-06-24T11:45:20;27.80;24.80
7341;DHT22;6870;50.944;6.932;2023-06-24T11:47:48;28.00;24.70
7341;DHT22;6870;50.944;6.932;2023-06-24T11:50:18;27.60;24.40
7341;DHT22;6870;50.944;6.932;2023-06-24T11:52:54;27.80;24.50
7341;DHT22;6870;50.944;6.932;2023-06-24T11:55:24;27.90;24.40
7341;DHT22;6870;50.944;6.932;2023-06-24T11:57:54;27.60;24.10
7341;DHT22;6870;50.944;6.932;2023-06-24T12:00:25;27.60;24.10
7341;DHT22;6870;50.944;6.932;2023-06-24T12:02:54;27.50;24.60
7341;DHT22;6870;50.944;6.932;2023-06-24T12:05:26;27.60;23.80
7341;DHT22;6870;50.944;6.932;2023-06-24T12:07:57;27.80;24.10
7341;DHT22;6870;50.944;6.932;2023-06-24T12:10:27;27.70;24.00
7341;DHT22;6870;50.944;6.932;2023-06-24T12:12:57;27.60;23.80
7341;DHT22;6870;50.944;6.932;2023-06-24T12:15:26;28.00;23.90
7341;DHT22;6870;50.944;6.932;2023-06-24T12:17:54;28.10;24.10
7341;DHT22;6870;50.944;6.932;2023-06-24T12:20:25;27.60;23.70
7341;DHT22;6870;50.944;6.932;2023-06-24T12:22:57;28.00;23.90
7341;DHT22;6870;50.944;6.932;2023-06-24T12:25:26;27.80;23.70
7341;DHT22;6870;50.944;6.932;2023-06-24T12:27:54;27.90;23.90
7341;DHT22;6870;50.944;6.932;2023-06-24T12:30:23;27.90;23.60
7341;DHT22;6870;50.944;6.932;2023-06-24T12:32:51;28.10;23.70
7341;DHT22;6870;50.944;6.932;2023-06-24T12:35:19;28.20;23.60
7341;DHT22;6870;50.944;6.932;2023-06-24T12:37:53;27.80;23.60
7341;DHT22;6870;50.944;6.932;2023-06-24T12:40:21;27.90;23.60
7341;DHT22;6870;50.944;6.932;2023-06-24T12:42:49;27.70;23.50
7341;DHT22;6870;50.944;6.932;2023-06-24T12:45:17;28.10;23.50
7341;DHT22;6870;50.944;6.932;2023-06-24T12:47:45;28.30;23.70
7341;DHT22;6870;50.944;6.932;2023-06-24T12:50:13;28.00;23.60
7341;DHT22;6870;50.944;6.932;2023-06-24T12:52:41;28.00;23.60
7341;DHT22;6870;50.944;6.932;2023-06-24T12:55:11;28.00;23.60
7341;DHT22;6870;50.944;6.932;2023-06-24T12:57:42;28.10;23.50
7341;DHT22;6870;50.944;6.932;2023-06-24T13:00:11;28.20;23.60
7341;DHT22;6870;50.944;6.932;2023-06-24T13:02:40;28.20;23.80
7341;DHT22;6870;50.944;6.932;2023-06-24T13:05:08;28.30;23.80
7341;DHT22;6870;50.944;6.932;2023-06-24T13:07:36;28.00;23.60
7341;DHT22;6870;50.944;6.932;2023-06-24T13:10:05;28.10;23.90
7341;DHT22;6870;50.944;6.932;2023-06-24T13:12:36;27.90;23.70
7341;DHT22;6870;50.944;6.932;2023-06-24T13:15:06;28.10;23.70
7341;DHT22;6870;50.944;6.932;2023-06-24T13:17:36;28.30;24.00
7341;DHT22;6870;50.944;6.932;2023-06-24T13:20:05;28.00;23.70
7341;DHT22;6870;50.944;6.932;2023-06-24T13:22:34;28.00;23.80
7341;DHT22;6870;50.944;6.932;2023-06-24T13:25:03;28.30;24.00
7341;DHT22;6870;50.944;6.932;2023-06-24T13:27:32;28.20;23.80
7341;DHT22;6870;50.944;6.932;2023-06-24T13:30:02;28.20;23.90
7341;DHT22;6870;50.944;6.932;2023-06-24T13:32:30;28.40;24.00
7341;DHT22;6870;50.944;6.932;2023-06-24T13:34:58;28.20;23.80
7341;DHT22;6870;50.944;6.932;2023-06-24T13:37:26;28.20;23.80
7341;DHT22;6870;50.944;6.932;2023-06-24T13:39:54;28.30;23.90
7341;DHT22;6870;50.944;6.932;2023-06-24T13:42:24;28.30;23.90
7341;DHT22;6870;50.944;6.932;2023-06-24T13:44:53;28.00;23.80
7341;DHT22;6870;50.944;6.932;2023-06-24T13:47:22;28.30;24.00
7341;DHT22;6870;50.944;6.932;2023-06-24T13:49:50;28.30;24.00
7341;DHT22;6870;50.944;6.932;2023-06-24T13:52:19;28.20;24.20
7341;DHT22;6870;50.944;6.932;2023-06-24T13:54:47;28.40;23.90
7341;DHT22;6870;50.944;6.932;2023-06-24T13:57:15;28.50;24.30
7341;DHT22;6870;50.944;6.932;2023-06-24T13:59:43;28.30;23.90
7341;DHT22;6870;50.944;6.932;2023-06-24T14:02:11;28.40;24.00
7341;DHT22;6870;50.944;6.932;2023-06-24T14:04:41;28.50;24.30
7341;DHT22;6870;50.944;6.932;2023-06-24T14:07:09;28.40;24.10
7341;DHT22;6870;50.944;6.932;2023-06-24T14:09:38;28.20;23.90
7341;DHT22;6870;50.944;6.932;2023-06-24T14:12:07;28.60;24.30
7341;DHT22;6870;50.944;6.932;2023-06-24T14:14:36;28.60;24.80
7341;DHT22;6870;50.944;6.932;2023-06-24T14:17:06;28.50;24.50
7341;DHT22;6870;50.944;6.932;2023-06-24T14:19:38;28.50;24.50
7341;DHT22;6870;50.944;6.932;2023-06-24T14:22:08;28.40;24.90
7341;DHT22;6870;50.944;6.932;2023-06-24T14:24:36;28.40;24.30
7341;DHT22;6870;50.944;6.932;2023-06-24T14:27:06;28.20;24.30
7341;DHT22;6870;50.944;6.932;2023-06-24T14:29:35;28.20;24.30
7341;DHT22;6870;50.944;6.932;2023-06-24T14:32:03;28.20;24.60
7341;DHT22;6870;50.944;6.932;2023-06-24T14:34:32;28.30;24.50
7341;DHT22;6870;50.944;6.932;2023-06-24T14:37:00;28.00;24.20
7341;DHT22;6870;50.944;6.932;2023-06-24T14:39:29;28.50;24.20
7341;DHT22;6870;50.944;6.932;2023-06-24T14:41:58;28.50;23.60
7341;DHT22;6870;50.944;6.932;2023-06-24T14:44:26;28.70;22.20
7341;DHT22;6870;50.944;6.932;2023-06-24T14:46:54;28.80;21.80
7341;DHT22;6870;50.944;6.932;2023-06-24T14:49:22;28.80;20.80
7341;DHT22;6870;50.944;6.932;2023-06-24T14:51:51;29.00;20.90
7341;DHT22;6870;50.944;6.932;2023-06-24T14:54:19;28.50;20.30
7341;DHT22;6870;50.944;6.932;2023-06-24T14:56:49;28.50;20.60
7341;DHT22;6870;50.944;6.932;2023-06-24T14:59:17;28.50;19.70
7341;DHT22;6870;50.944;6.932;2023-06-24T15:01:45;28.50;20.00
7341;DHT22;6870;50.944;6.932;2023-06-24T15:04:13;28.60;20.20
7341;DHT22;6870;50.944;6.932;2023-06-24T15:06:41;28.70;20.70
7341;DHT22;6870;50.944;6.932;2023-06-24T15:09:09;28.50;21.70
7341;DHT22;6870;50.944;6.932;2023-06-24T15:11:37;28.30;21.60
7341;DHT22;6870;50.944;6.932;2023-06-24T15:14:06;28.20;21.80
7341;DHT22;6870;50.944;6.932;2023-06-24T15:16:34;28.40;22.10
7341;DHT22;6870;50.944;6.932;2023-06-24T15:19:02;28.20;22.10
7341;DHT22;6870;50.944;6.932;2023-06-24T15:21:31;28.20;22.20
7341;DHT22;6870;50.944;6.932;2023-06-24T15:24:03;28.20;22.50
7341;DHT22;6870;50.944;6.932;2023-06-24T15:26:32;28.20;22.80
7341;DHT22;6870;50.944;6.932;2023-06-24T15:29:00;28.20;22.60
7341;DHT22;6870;50.944;6.932;2023-06-24T15:31:29;28.30;22.70
7341;DHT22;6870;50.944;6.932;2023-06-24T15:33:58;28.20;22.50
7341;DHT22;6870;50.944;6.932;2023-06-24T15:36:26;28.30;22.80
7341;DHT22;6870;50.944;6.932;2023-06-24T15:38:56;28.30;22.70
7341;DHT22;6870;50.944;6.932;2023-06-24T15:41:24;28.20;22.70
7341;DHT22;6870;50.944;6.932;2023-06-24T15:43:52;28.10;22.80
7341;DHT22;6870;50.944;6.932;2023-06-24T15:46:20;28.10;22.70
7341;DHT22;6870;50.944;6.932;2023-06-24T15:48:51;28.10;22.90
7341;DHT22;6870;50.944;6.932;2023-06-24T15:51:19;28.20;22.90
7341;DHT22;6870;50.944;6.932;2023-06-24T15:53:47;28.30;23.00
7341;DHT22;6870;50.944;6.932;2023-06-24T15:56:15;28.20;23.00
7341;DHT22;6870;50.944;6.932;2023-06-24T15:58:43;28.20;23.40
7341;DHT22;6870;50.944;6.932;2023-06-24T16:01:11;28.40;23.40
7341;DHT22;6870;50.944;6.932;2023-06-24T16:03:41;28.20;23.20
7341;DHT22;6870;50.944;6.932;2023-06-24T16:06:10;28.10;23.10
7341;DHT22;6870;50.944;6.932;2023-06-24T16:08:38;28.20;23.10
7341;DHT22;6870;50.944;6.932;2023-06-24T16:11:06;28.40;23.30
7341;DHT22;6870;50.944;6.932;2023-06-24T16:13:35;28.20;23.00
7341;DHT22;6870;50.944;6.932;2023-06-24T16:16:03;27.80;22.90